Pagina principale
METAR-TAF:

METAR-TAF

Aeroporti :

Burgos, Spagna

latitudine: 42-22N, longitudine: 003-38W, altezza: 894 m

Osservazione

Il bollettino è stato emesso 25 minuti fa, alle 23:30 UTC
Vento 7 kt da nord/nord-est
Temperature 11°C
Umidità 87%
Pressione 1018 hPa
Visibilità 10 km o più
nessuna nube inferiore a 1500 m e nessun cumulonembo

METAR: LEBG 292330Z AUTO 03007KT CAVOK 11/09 Q1018

Ora: 01:55 (23:55 UTC)

Previsione

Il bollettino è stato emesso 6 ore e 55 minuti fa, alle 17:00 UTC
Previsione valida dal 29 alle 18 UTC al 30 alle 03 UTC
Vento 10 kt da nord-est
Visibilità 10 km o più
nessuna nube inferiore a 1500 m e nessun cumulonembo
Probabilità 30% :
Temporaneamente
dal 29 alle 18 UTC al 29 alle 22 UTC
Poco nuvoloso ad un'altezza di 3500 ft, Cumulo congesto.

TAF: LEBG 291700Z 2918/3003 04010KT CAVOK PROB30 TEMPO 2918/2922 FEW035TCU

Osservazioni e previsioni meteorologiche di più di 4000 aeroporti (messaggi METAR e TAF).

Le stazioni disponibili sono rappresentate dai dischi gialli e rossi sulla carta.

Puntare il mouse per vedere il nome della stazione.

Clicca sopra per visualizzare le osservazioni e previsioni meteorologiche.

Per cambiare la mappa : fare clic sui pulsanti verdi con una croce nera per ingrandire, il pulsante verde con un trattino per diminuire, o sulla freccia verde per le mappe adiacenti.


METAR-TAF: